Time;durP1;ratioP1;P1;durP2;ratioP2;P2;SDS_P1;SDS_P2;PMS_P1;PMS_P2;Temp;Humidity;BMP_temperature;BMP_pressure;BME280_temperature;BME280_humidity;BME280_pressure;Samples;Min_cycle;Max_cycle;Signal;HPM_P1;HPM_P2
2022/12/10 00:03:37;;;;;;;14.25;10.32;;;;;;;-4.72;100.00;100530.28;10420289;28;20095;-66
2022/12/10 00:08:41;;;;;;;17.73;13.93;;;;;;;-4.78;100.00;100523.38;10417998;28;20101;-65
2022/12/10 00:13:44;;;;;;;18.70;12.00;;;;;;;-4.85;100.00;100530.91;10420236;28;20128;-66
2022/12/10 00:18:49;;;;;;;14.43;11.48;;;;;;;-4.93;100.00;100539.28;10420604;28;20072;-65
2022/12/10 00:23:51;;;;;;;13.20;10.43;;;;;;;-4.89;100.00;100539.34;10419839;28;20462;-66
2022/12/10 00:28:55;;;;;;;11.45;10.32;;;;;;;-4.95;100.00;100538.41;10419555;28;20095;-66
2022/12/10 00:34:01;;;;;;;12.93;11.60;;;;;;;-5.00;100.00;100542.56;10419643;28;20080;-66
2022/12/10 00:39:05;;;;;;;13.90;12.00;;;;;;;-4.96;100.00;100543.47;10417564;28;20086;-66
2022/12/10 00:44:07;;;;;;;16.58;12.02;;;;;;;-4.84;100.00;100547.91;10419186;28;20071;-67
2022/12/10 00:49:12;;;;;;;13.85;11.98;;;;;;;-4.91;100.00;100539.31;10419489;28;20083;-67
2022/12/10 00:54:14;;;;;;;13.68;11.32;;;;;;;-4.98;100.00;100515.44;10418627;28;20071;-67
2022/12/10 00:59:17;;;;;;;19.75;13.52;;;;;;;-4.93;100.00;100526.56;10418812;28;20070;-67
2022/12/10 01:04:20;;;;;;;16.10;11.38;;;;;;;-4.85;100.00;100520.75;10418553;28;20099;-66
2022/12/10 01:09:25;;;;;;;20.48;13.93;;;;;;;-4.82;100.00;100523.34;10416328;28;20085;-66
2022/12/10 01:14:31;;;;;;;10.90;9.20;;;;;;;-4.81;100.00;100522.50;10418454;28;20100;-66
2022/12/10 01:19:34;;;;;;;27.42;15.35;;;;;;;-4.76;100.00;100528.50;10418250;28;20075;-66
2022/12/10 01:24:36;;;;;;;22.88;11.75;;;;;;;-4.69;100.00;100532.03;10417539;28;20088;-66
2022/12/10 01:29:38;;;;;;;15.77;14.05;;;;;;;-4.54;100.00;100536.50;10417634;28;20088;-68
2022/12/10 01:34:41;;;;;;;19.95;15.45;;;;;;;-4.34;100.00;100547.00;10417582;28;20072;-67
2022/12/10 01:39:44;;;;;;;22.35;15.48;;;;;;;-4.23;100.00;100548.81;10415063;28;20082;-67
2022/12/10 01:45:17;;;;;;;27.88;17.60;;;;;;;-4.13;100.00;100551.50;10416825;28;20071;-68
2022/12/10 01:50:21;;;;;;;25.98;16.80;;;;;;;-4.14;100.00;100567.63;10364644;28;20091;-67
2022/12/10 01:55:50;;;;;;;23.13;16.35;;;;;;;-4.14;100.00;100562.53;10416779;28;20072;-68
2022/12/10 02:01:08;;;;;;;22.48;17.33;;;;;;;-4.11;100.00;100560.88;10405795;28;20079;-67
2022/12/10 02:06:35;;;;;;;30.33;17.75;;;;;;;-4.10;100.00;100557.47;10415963;28;20069;-67
2022/12/10 02:11:49;;;;;;;21.42;16.27;;;;;;;-4.08;100.00;100566.03;10413406;28;20100;-68
2022/12/10 02:16:59;;;;;;;26.15;17.77;;;;;;;-4.03;100.00;100549.94;10415185;28;20074;-68
2022/12/10 02:22:06;;;;;;;25.83;17.48;;;;;;;-4.00;100.00;100554.22;10415491;28;20078;-67
2022/12/10 02:27:17;;;;;;;15.93;13.38;;;;;;;-3.95;100.00;100552.59;10415363;28;20506;-67
2022/12/10 02:32:26;;;;;;;19.27;12.27;;;;;;;-3.88;100.00;100541.63;10414925;28;20397;-69
2022/12/10 02:37:34;;;;;;;24.75;17.08;;;;;;;-3.82;100.00;100545.09;10412954;28;20067;-68
2022/12/10 02:42:41;;;;;;;28.35;18.92;;;;;;;-3.78;100.00;100541.72;10415238;28;20738;-71
2022/12/10 02:47:46;;;;;;;26.67;16.05;;;;;;;-3.73;100.00;100542.63;10414261;28;20082;-70
2022/12/10 02:52:48;;;;;;;23.48;15.23;;;;;;;-3.70;100.00;100537.56;10414476;28;20068;-70
2022/12/10 02:58:08;;;;;;;36.03;17.40;;;;;;;-3.70;100.00;100546.94;10414330;28;20066;-69
2022/12/10 03:03:34;;;;;;;29.52;18.40;;;;;;;-3.68;100.00;100551.22;10414081;28;20103;-69
2022/12/10 03:08:46;;;;;;;25.17;14.80;;;;;;;-3.66;100.00;100552.06;10411470;28;20101;-69
2022/12/10 03:13:58;;;;;;;18.48;13.48;;;;;;;-3.63;100.00;100558.91;10413644;28;20496;-70
2022/12/10 03:19:07;;;;;;;25.85;18.00;;;;;;;-3.62;100.00;100551.28;10413196;28;20520;-70
2022/12/10 03:24:11;;;;;;;21.80;15.50;;;;;;;-3.57;100.00;100547.91;10413149;28;20066;-69
2022/12/10 03:29:20;;;;;;;25.60;16.40;;;;;;;-3.56;100.00;100557.31;10412051;28;20118;-69
2022/12/10 03:34:23;;;;;;;36.28;18.20;;;;;;;-3.55;100.00;100554.78;10413000;28;20086;-70
2022/12/10 03:39:27;;;;;;;31.60;18.92;;;;;;;-3.52;100.00;100556.50;10410923;28;20064;-69
2022/12/10 03:44:31;;;;;;;24.45;17.95;;;;;;;-3.53;100.00;100559.88;10412546;28;20075;-69
2022/12/10 03:49:36;;;;;;;23.60;17.63;;;;;;;-3.52;100.00;100567.53;10412603;28;20081;-70
2022/12/10 03:54:37;;;;;;;29.38;18.98;;;;;;;-3.57;100.00;100563.22;10412324;28;20508;-70
2022/12/10 03:59:40;;;;;;;29.17;18.05;;;;;;;-3.60;100.00;100560.66;10412972;28;20077;-69
2022/12/10 04:04:44;;;;;;;30.13;17.52;;;;;;;-3.56;100.00;100572.63;10411795;28;20090;-70
2022/12/10 04:09:47;;;;;;;21.42;15.77;;;;;;;-3.56;100.00;100567.50;10409609;28;20080;-70
2022/12/10 04:26:51;;;;;;;42.58;18.02;;;;;;;-3.54;100.00;100574.34;10412263;28;20397;-69
2022/12/10 04:30:54;;;;;;;27.83;18.42;;;;;;;-3.54;100.00;100573.47;10411870;28;20080;-70
2022/12/10 04:35:57;;;;;;;35.03;18.70;;;;;;;-3.62;100.00;100574.22;10411675;28;20460;-69
2022/12/10 04:40:58;;;;;;;37.50;19.10;;;;;;;-3.69;100.00;100580.13;10412121;28;20072;-69
2022/12/10 04:46:00;;;;;;;38.55;20.25;;;;;;;-3.64;100.00;100583.56;10419599;28;20073;-70
2022/12/10 04:51:05;;;;;;;35.97;17.80;;;;;;;-3.57;100.00;100588.72;10419277;28;20092;-70
2022/12/10 04:56:07;;;;;;;24.05;16.10;;;;;;;-3.56;100.00;100586.22;10419378;28;20067;-70
2022/12/10 05:01:12;;;;;;;22.75;16.67;;;;;;;-3.52;100.00;100593.06;10418739;28;20099;-70
2022/12/10 05:06:18;;;;;;;22.85;15.50;;;;;;;-3.51;100.00;100588.81;10419313;28;20072;-71
2022/12/10 05:11:24;;;;;;;36.05;17.00;;;;;;;-3.52;100.00;100584.56;10416089;28;20084;-69
2022/12/10 05:16:29;;;;;;;43.40;18.58;;;;;;;-3.48;100.00;100583.75;10417862;28;20064;-69
2022/12/10 05:26:50;;;;;;;29.33;19.33;;;;;;;-3.43;100.00;100586.34;10417341;28;20067;-69
2022/12/10 05:31:52;;;;;;;39.55;19.25;;;;;;;-3.41;100.00;100589.78;10417662;28;20088;-70
2022/12/10 05:36:55;;;;;;;29.80;17.70;;;;;;;-3.39;100.00;100588.13;10417055;28;20068;-69
2022/12/10 05:41:57;;;;;;;33.10;18.52;;;;;;;-3.37;100.00;100587.28;10414723;28;20499;-69
2022/12/10 05:47:00;;;;;;;21.85;17.52;;;;;;;-3.38;100.00;100588.09;10417248;28;20071;-69
2022/12/10 05:52:03;;;;;;;31.25;15.65;;;;;;;-3.43;100.00;100589.75;10415585;28;20103;-69
2022/12/10 05:57:05;;;;;;;25.77;16.75;;;;;;;-3.47;100.00;100589.69;10416558;28;20067;-69
2022/12/10 06:02:07;;;;;;;20.98;14.23;;;;;;;-3.46;100.00;100594.81;10415102;28;20091;-69
2022/12/10 06:07:11;;;;;;;67.38;29.08;;;;;;;-3.46;100.00;100596.53;10413555;28;20068;-68
2022/12/10 06:12:13;;;;;;;22.35;17.10;;;;;;;-3.43;100.00;100596.56;10415133;28;20077;-69
2022/12/10 06:17:15;;;;;;;33.63;17.33;;;;;;;-3.44;100.00;100598.25;10416184;28;20067;-70
2022/12/10 06:22:18;;;;;;;23.98;16.13;;;;;;;-3.41;100.00;100600.00;10415099;28;20388;-69
2022/12/10 06:27:21;;;;;;;23.88;16.42;;;;;;;-3.37;100.00;100605.16;10414145;28;20168;-69
2022/12/10 06:32:23;;;;;;;32.63;20.05;;;;;;;-3.34;100.00;100606.00;10414528;28;20111;-68
2022/12/10 06:37:26;;;;;;;39.95;20.23;;;;;;;-3.34;100.00;100606.00;10412255;28;20876;-69
2022/12/10 06:42:28;;;;;;;26.05;18.08;;;;;;;-3.42;100.00;100611.88;10414694;28;20474;-69
2022/12/10 06:47:30;;;;;;;26.27;16.00;;;;;;;-3.41;100.00;100612.75;10414474;28;20064;-69
2022/12/10 06:52:34;;;;;;;17.08;13.77;;;;;;;-3.54;100.00;100610.06;10414364;28;20141;-69
2022/12/10 06:57:37;;;;;;;33.00;18.60;;;;;;;-3.57;100.00;100634.66;10414135;28;20074;-69
2022/12/10 07:02:38;;;;;;;28.52;15.57;;;;;;;-3.59;100.00;100636.34;10413673;28;20161;-69
2022/12/10 07:07:43;;;;;;;33.80;18.17;;;;;;;-3.61;100.00;100643.97;10411423;28;20496;-69
2022/12/10 07:12:45;;;;;;;43.85;20.38;;;;;;;-3.60;100.00;100647.41;10413354;28;20890;-69
2022/12/10 07:17:48;;;;;;;36.88;19.23;;;;;;;-3.63;100.00;100646.50;10413761;28;20105;-69
2022/12/10 07:22:51;;;;;;;41.78;20.80;;;;;;;-3.58;100.00;100638.06;10413346;28;20070;-68
2022/12/10 07:27:53;;;;;;;35.22;18.70;;;;;;;-3.50;100.00;100656.88;10412819;28;20464;-68
2022/12/10 07:32:55;;;;;;;23.30;16.48;;;;;;;-3.48;100.00;100655.22;10412325;28;20065;-69
2022/12/10 07:37:58;;;;;;;27.35;18.00;;;;;;;-3.41;100.00;100657.00;10410702;28;20071;-70
2022/12/10 07:43:00;;;;;;;27.88;17.85;;;;;;;-3.40;100.00;100663.81;10413679;28;20064;-70
2022/12/10 07:48:04;;;;;;;37.60;20.02;;;;;;;-3.41;100.00;100661.25;10413714;28;20067;-69
2022/12/10 07:53:07;;;;;;;19.60;14.43;;;;;;;-3.40;100.00;100661.25;10413066;28;20526;-69
2022/12/10 07:58:10;;;;;;;29.27;18.48;;;;;;;-3.33;100.00;100668.97;10413033;28;20474;-70
2022/12/10 08:03:12;;;;;;;46.20;21.15;;;;;;;-3.31;100.00;100673.28;10413032;28;20111;-69
2022/12/10 08:08:15;;;;;;;31.15;19.38;;;;;;;-3.33;100.00;100669.84;10410935;28;20070;-69
2022/12/10 08:13:17;;;;;;;70.88;21.20;;;;;;;-3.37;100.00;100679.16;10412899;28;20064;-68
2022/12/10 08:18:19;;;;;;;32.50;16.23;;;;;;;-3.37;100.00;100684.28;10418055;28;20068;-68
2022/12/10 08:23:22;;;;;;;52.47;18.75;;;;;;;-3.32;100.00;100693.69;10420197;28;20103;-69
2022/12/10 08:28:25;;;;;;;39.55;20.73;;;;;;;-3.28;100.00;100690.31;10419995;28;20088;-69
2022/12/10 08:33:28;;;;;;;57.03;20.48;;;;;;;-3.23;100.00;100701.44;10420563;28;20063;-69
2022/12/10 08:38:33;;;;;;;31.67;17.75;;;;;;;-3.28;100.00;100713.31;10418167;28;20074;-71
2022/12/10 08:43:35;;;;;;;29.55;17.08;;;;;;;-3.25;100.00;100714.19;10420223;28;20079;-69
2022/12/10 08:48:39;;;;;;;;;;;;;;;-3.23;100.00;100716.75;10420939;28;20088;-69
2022/12/10 08:53:42;;;;;;;24.35;16.00;;;;;;;-3.26;100.00;100720.13;10419335;28;19945;-68
2022/12/10 08:58:44;;;;;;;32.33;18.20;;;;;;;-3.16;100.00;100726.22;10419088;28;20080;-69
2022/12/10 09:03:47;;;;;;;62.35;19.77;;;;;;;-3.13;100.00;100727.94;10418805;28;20094;-68
2022/12/10 09:08:52;;;;;;;34.47;18.05;;;;;;;-3.06;100.00;100728.88;10417211;28;20088;-68
2022/12/10 09:13:55;;;;;;;38.75;22.02;;;;;;;-3.03;100.00;100729.78;10418676;28;20069;-69
2022/12/10 09:18:58;;;;;;;34.85;19.15;;;;;;;-3.08;100.00;100730.56;10418525;28;20076;-69
2022/12/10 09:24:01;;;;;;;52.42;21.67;;;;;;;-3.11;100.00;100729.66;10418136;28;20511;-69
2022/12/10 09:29:03;;;;;;;56.42;17.70;;;;;;;-3.04;100.00;100732.31;10416797;28;20087;-69
2022/12/10 09:34:05;;;;;;;50.33;21.92;;;;;;;-3.05;100.00;100740.81;10418355;28;20075;-68
2022/12/10 09:39:08;;;;;;;31.40;19.15;;;;;;;-2.87;100.00;100741.00;10415937;28;20120;-69
2022/12/10 09:44:24;;;;;;;34.05;20.95;;;;;;;-2.80;100.00;100751.31;10417639;28;20124;-69
2022/12/10 09:49:45;;;;;;;45.28;21.17;;;;;;;-2.90;100.00;100751.22;10417360;28;20447;-69
2022/12/10 09:54:55;;;;;;;30.80;18.50;;;;;;;-2.94;100.00;100754.56;10418029;28;20072;-69
2022/12/10 10:00:01;;;;;;;42.92;18.40;;;;;;;-2.97;100.00;100764.75;10417348;28;20116;-69
2022/12/10 10:05:17;;;;;;;27.05;17.45;;;;;;;-3.03;100.00;100759.56;10416703;28;20101;-69
2022/12/10 10:10:27;;;;;;;59.45;20.55;;;;;;;-3.03;100.00;100765.53;10414643;28;20087;-70
2022/12/10 10:15:34;;;;;;;41.63;18.52;;;;;;;-2.95;100.00;100768.16;10415445;28;20411;-69
2022/12/10 10:20:37;;;;;;;43.08;17.77;;;;;;;-2.98;100.00;100763.00;10415555;28;20061;-68
2022/12/10 10:25:40;;;;;;;59.83;31.63;;;;;;;-2.91;100.00;100769.91;10416347;28;20526;-69
2022/12/10 10:30:45;;;;;;;36.53;18.10;;;;;;;-2.95;100.00;100772.44;10415533;28;20092;-68
2022/12/10 10:35:53;;;;;;;26.35;15.07;;;;;;;-2.94;100.00;100771.59;10415946;28;20084;-68
2022/12/10 10:40:58;;;;;;;62.90;22.02;;;;;;;-2.82;100.00;100776.84;10412971;28;20121;-68
2022/12/10 10:46:06;;;;;;;38.88;20.08;;;;;;;-2.78;100.00;100768.38;10415178;28;20067;-69
2022/12/10 10:51:18;;;;;;;49.47;20.02;;;;;;;-2.80;100.00;100761.53;10414935;28;20097;-69
2022/12/10 10:56:24;;;;;;;38.47;26.85;;;;;;;-2.83;100.00;100769.16;10415487;28;20062;-68
2022/12/10 11:01:45;;;;;;;61.78;21.20;;;;;;;-2.83;100.00;100764.03;10414839;28;20566;-68
2022/12/10 11:06:56;;;;;;;34.50;14.85;;;;;;;-2.87;100.00;100764.00;10414856;28;20068;-68
2022/12/10 11:12:02;;;;;;;31.23;18.58;;;;;;;-2.74;100.00;100759.91;10411848;28;20826;-68
2022/12/10 11:17:21;;;;;;;46.63;19.83;;;;;;;-2.72;100.00;100745.47;10413873;28;20442;-68
2022/12/10 11:22:27;;;;;;;42.85;20.50;;;;;;;-2.53;100.00;100744.78;10414063;28;20061;-67
2022/12/10 11:27:56;;;;;;;36.88;16.55;;;;;;;-2.65;100.00;100741.25;10413591;28;20455;-68
2022/12/10 11:33:21;;;;;;;75.18;23.35;;;;;;;-2.69;100.00;100746.31;10413768;28;20109;-69
2022/12/10 11:38:30;;;;;;;31.20;19.52;;;;;;;-2.60;100.00;100742.16;10411391;28;20073;-69
2022/12/10 11:43:56;;;;;;;48.75;20.67;;;;;;;-2.67;100.00;100747.22;10413274;28;20071;-68
2022/12/10 11:49:18;;;;;;;24.13;15.27;;;;;;;-2.57;100.00;100745.59;10413825;28;20077;-69
2022/12/10 11:54:34;;;;;;;;;;;;;;;-2.66;100.00;100747.22;10422307;28;20067;-69
2022/12/10 11:59:48;;;;;;;51.08;18.75;;;;;;;-2.57;100.00;100753.28;10421913;28;19938;-69
2022/12/10 12:05:15;;;;;;;26.50;16.38;;;;;;;-2.66;100.00;100744.66;10421255;28;20147;-69
2022/12/10 12:11:00;;;;;;;37.42;18.55;;;;;;;-2.72;100.00;100749.69;10419096;28;20607;-69
2022/12/10 12:16:12;;;;;;;45.97;21.52;;;;;;;-2.54;100.00;100750.75;10420835;28;20062;-68
2022/12/10 12:21:17;;;;;;;39.95;19.02;;;;;;;-2.51;100.00;100754.19;10420930;28;20128;-68
2022/12/10 12:26:26;;;;;;;33.08;16.13;;;;;;;-2.62;100.00;100755.78;10420811;28;20088;-67
2022/12/10 12:31:38;;;;;;;43.58;19.73;;;;;;;-2.55;100.00;100751.56;10420201;28;20089;-68
2022/12/10 12:36:41;;;;;;;35.60;18.35;;;;;;;-2.47;100.00;100748.25;10419795;28;20079;-68
2022/12/10 12:41:59;;;;;;;50.55;19.80;;;;;;;-2.33;100.00;100748.41;10417521;28;20136;-68
2022/12/10 12:47:24;;;;;;;56.97;25.00;;;;;;;-2.24;100.00;100747.63;10420039;28;20154;-68
2022/12/10 12:52:38;;;;;;;38.92;20.27;;;;;;;-2.34;100.00;100751.81;10419931;28;20087;-68
2022/12/10 12:57:48;;;;;;;32.50;17.35;;;;;;;-2.34;100.00;100751.81;10419730;28;20071;-69
2022/12/10 13:03:08;;;;;;;28.70;14.82;;;;;;;-2.42;100.00;100758.53;10418514;28;20501;-67
2022/12/10 13:08:30;;;;;;;40.45;17.77;;;;;;;-2.40;100.00;100763.69;10417110;28;20059;-67
2022/12/10 13:13:36;;;;;;;22.67;12.87;;;;;;;-2.50;100.00;100758.44;10418833;28;20086;-69
2022/12/10 13:18:40;;;;;;;35.92;16.40;;;;;;;-2.34;100.00;100761.16;10418635;28;20065;-68
2022/12/10 13:23:51;;;;;;;32.72;16.90;;;;;;;-2.37;100.00;100763.69;10418109;28;20057;-68
2022/12/10 13:28:55;;;;;;;32.95;16.88;;;;;;;-2.38;100.00;100757.72;10417858;28;20562;-68
2022/12/10 13:34:24;;;;;;;24.05;16.20;;;;;;;-2.39;100.00;100768.78;10418276;28;20444;-68
2022/12/10 13:39:35;;;;;;;23.92;16.05;;;;;;;-2.34;100.00;100767.13;10416207;28;20062;-68
2022/12/10 13:44:49;;;;;;;40.47;17.77;;;;;;;-2.40;100.00;100761.94;10418134;28;20071;-69
2022/12/10 13:49:58;;;;;;;29.85;16.98;;;;;;;-2.44;100.00;100770.44;10417613;28;20083;-68
2022/12/10 13:55:26;;;;;;;38.72;16.42;;;;;;;-2.37;100.00;100772.22;10416833;28;20128;-68
2022/12/10 14:00:38;;;;;;;29.27;14.38;;;;;;;-2.38;100.00;100770.50;10414069;28;20069;-68
2022/12/10 14:06:13;;;;;;;35.00;18.27;;;;;;;-2.37;100.00;100781.56;10416232;28;20109;-67
2022/12/10 14:11:23;;;;;;;48.10;17.30;;;;;;;-2.35;100.00;100785.88;10414262;28;20082;-68
2022/12/10 14:16:28;;;;;;;38.85;17.50;;;;;;;-2.28;100.00;100785.94;10412698;28;20066;-67
2022/12/10 14:21:36;;;;;;;43.08;20.20;;;;;;;-2.33;100.00;100784.19;10415030;28;20068;-69
2022/12/10 14:26:38;;;;;;;40.90;17.13;;;;;;;-2.29;100.00;100781.66;10415998;28;20070;-68
2022/12/10 14:31:47;;;;;;;42.45;17.48;;;;;;;-2.34;100.00;100782.47;10415048;28;20084;-67
2022/12/10 14:36:56;;;;;;;57.65;21.75;;;;;;;-2.30;100.00;100790.19;10414722;28;20624;-68
2022/12/10 14:42:03;;;;;;;36.63;19.35;;;;;;;-2.34;100.00;100797.81;10413397;28;20061;-68
2022/12/10 14:47:13;;;;;;;31.45;17.58;;;;;;;-2.43;100.00;100802.81;10415198;28;20062;-67
2022/12/10 14:52:21;;;;;;;28.95;14.88;;;;;;;-2.41;100.00;100803.69;10415105;28;20091;-68
2022/12/10 14:57:32;;;;;;;44.05;17.05;;;;;;;-2.34;100.00;100799.50;10414338;28;20436;-68
2022/12/10 15:02:39;;;;;;;23.50;15.13;;;;;;;-2.33;100.00;100803.78;10419431;28;20134;-69
2022/12/10 15:07:42;;;;;;;25.48;16.48;;;;;;;-2.37;100.00;100790.13;10413502;28;20094;-69
2022/12/10 15:12:50;;;;;;;39.28;18.25;;;;;;;-2.28;100.00;100796.16;10420687;28;20107;-70
2022/12/10 15:18:00;;;;;;;23.42;15.40;;;;;;;-2.28;100.00;100791.03;10412394;28;20066;-68
2022/12/10 15:23:23;;;;;;;32.17;18.35;;;;;;;-2.37;100.00;100802.91;10413711;28;20118;-70
2022/12/10 15:28:28;;;;;;;33.40;17.38;;;;;;;-2.33;100.00;100799.53;10413806;28;20078;-68
2022/12/10 15:33:39;;;;;;;26.42;17.27;;;;;;;-2.37;100.00;100796.91;10413998;28;20084;-67
2022/12/10 15:38:44;;;;;;;35.88;17.35;;;;;;;-2.34;100.00;100807.19;10410610;28;20432;-68
2022/12/10 15:43:58;;;;;;;45.50;16.90;;;;;;;-2.29;100.00;100817.47;10413590;28;20067;-69
2022/12/10 15:49:00;;;;;;;37.67;19.27;;;;;;;-2.31;100.00;100819.13;10413244;28;20073;-69
2022/12/10 15:54:22;;;;;;;42.05;19.98;;;;;;;-2.29;100.00;100807.22;10412642;28;20452;-69
2022/12/10 15:59:24;;;;;;;42.17;18.52;;;;;;;-2.26;100.00;100810.66;10413482;28;20105;-69
2022/12/10 16:04:26;;;;;;;37.67;15.77;;;;;;;-2.24;100.00;100819.22;10412759;28;20099;-69
2022/12/10 16:09:29;;;;;;;36.53;19.67;;;;;;;-2.21;100.00;100821.81;10411103;28;20059;-67
2022/12/10 16:14:31;;;;;;;28.60;14.30;;;;;;;-2.25;100.00;100816.66;10412888;28;20078;-68
2022/12/10 16:19:33;;;;;;;38.63;18.52;;;;;;;-2.21;100.00;100813.28;10410989;28;20602;-68
2022/12/10 16:24:36;;;;;;;36.85;17.35;;;;;;;-2.23;100.00;100810.69;10412335;28;20507;-67
2022/12/10 16:29:40;;;;;;;28.70;16.00;;;;;;;-2.16;100.00;100811.63;10411800;28;20077;-68
2022/12/10 16:34:42;;;;;;;26.40;17.00;;;;;;;-2.14;100.00;100804.81;10411188;28;20076;-69
2022/12/10 16:39:46;;;;;;;44.65;21.90;;;;;;;-2.16;100.00;100819.28;10415920;28;20069;-69
2022/12/10 16:44:48;;;;;;;26.70;17.60;;;;;;;-2.19;100.00;100816.69;10418911;28;20075;-69
2022/12/10 16:49:50;;;;;;;32.53;19.23;;;;;;;-2.17;100.00;100817.56;10418285;28;20536;-69
2022/12/10 16:54:53;;;;;;;38.78;17.88;;;;;;;-2.15;100.00;100822.72;10418300;28;20653;-69
2022/12/10 16:59:55;;;;;;;38.60;18.90;;;;;;;-2.18;100.00;100827.78;10418013;28;20156;-69
2022/12/10 17:04:56;;;;;;;36.60;17.73;;;;;;;-2.17;100.00;100832.91;10417863;28;20473;-68
2022/12/10 17:10:00;;;;;;;35.22;19.88;;;;;;;-2.16;100.00;100831.22;10415481;28;20223;-68
2022/12/10 17:15:05;;;;;;;34.90;17.23;;;;;;;-2.15;100.00;100833.81;10418190;28;20069;-68
2022/12/10 17:20:18;;;;;;;49.35;18.92;;;;;;;-2.12;100.00;100833.81;10417463;28;20066;-68
2022/12/10 17:25:21;;;;;;;26.98;16.98;;;;;;;-2.04;100.00;100846.69;10416967;28;20099;-68
2022/12/10 17:30:24;;;;;;;62.30;20.35;;;;;;;-2.08;100.00;100855.19;10415902;28;20099;-67
2022/12/10 17:35:26;;;;;;;34.15;18.27;;;;;;;-2.05;100.00;100852.66;10416719;28;20069;-68
2022/12/10 17:40:31;;;;;;;40.53;16.60;;;;;;;-2.01;100.00;100850.97;10414160;28;20434;-69
2022/12/10 17:45:33;;;;;;;36.47;16.83;;;;;;;-1.97;100.00;100845.91;10415928;28;20079;-69
2022/12/10 17:50:37;;;;;;;51.50;21.95;;;;;;;-1.94;100.00;100845.09;10415072;28;20105;-69
2022/12/10 17:55:44;;;;;;;33.40;18.77;;;;;;;-1.96;100.00;100846.75;10415665;28;20838;-69
2022/12/10 18:00:45;;;;;;;30.15;17.95;;;;;;;-1.94;100.00;100845.09;10415379;28;20119;-69
2022/12/10 18:05:47;;;;;;;48.75;20.80;;;;;;;-1.95;100.00;100845.94;10415512;28;20424;-68
2022/12/10 18:10:53;;;;;;;36.25;19.40;;;;;;;-1.90;100.00;100844.28;10412923;28;20602;-69
2022/12/10 18:15:55;;;;;;;48.60;18.77;;;;;;;-1.87;100.00;100849.41;10415183;28;20550;-69
2022/12/10 18:20:58;;;;;;;37.20;19.02;;;;;;;-1.87;100.00;100839.19;10415433;28;20071;-69
2022/12/10 18:26:02;;;;;;;28.67;17.17;;;;;;;-1.81;100.00;100848.63;10415372;28;20078;-68
2022/12/10 18:31:06;;;;;;;25.15;14.45;;;;;;;-1.82;100.00;100842.63;10415279;28;20108;-69
2022/12/10 18:36:14;;;;;;;60.13;20.88;;;;;;;-1.77;100.00;100849.50;10414915;28;20073;-69
2022/12/10 18:41:19;;;;;;;50.00;21.45;;;;;;;-1.74;100.00;100852.91;10411305;28;20080;-68
2022/12/10 18:46:25;;;;;;;42.55;21.17;;;;;;;-1.72;100.00;100852.94;10413061;28;20074;-69
2022/12/10 18:51:28;;;;;;;35.60;17.73;;;;;;;-1.70;100.00;100852.13;10413424;28;20084;-69
2022/12/10 18:56:33;;;;;;;42.88;21.85;;;;;;;-1.66;100.00;100854.69;10413549;28;20064;-68
2022/12/10 19:01:34;;;;;;;40.75;19.08;;;;;;;-1.63;100.00;100853.03;10413178;28;20107;-68
2022/12/10 19:06:38;;;;;;;37.22;20.35;;;;;;;-1.62;100.00;100864.97;10413845;28;20066;-69
2022/12/10 19:11:41;;;;;;;37.95;21.10;;;;;;;-1.58;100.00;100866.72;10411441;28;20089;-69
2022/12/10 19:16:44;;;;;;;43.20;20.63;;;;;;;-1.57;100.00;100865.03;10412791;28;20533;-68
2022/12/10 19:21:47;;;;;;;;;;;;;;;-1.54;100.00;100857.34;10412795;28;20064;-69
2022/12/10 19:26:50;;;;;;;47.58;16.35;;;;;;;-1.52;100.00;100854.81;10412507;28;19958;-68
2022/12/10 19:31:52;;;;;;;28.13;15.40;;;;;;;-1.49;100.00;100854.84;10412011;28;20485;-68
2022/12/10 19:36:54;;;;;;;44.28;22.45;;;;;;;-1.49;100.00;100848.03;10411546;28;20075;-68
2022/12/10 19:41:57;;;;;;;43.47;21.42;;;;;;;-1.47;100.00;100842.91;10409059;28;20104;-67
2022/12/10 19:46:59;;;;;;;54.22;18.17;;;;;;;-1.44;100.00;100838.66;10412681;28;20063;-67
2022/12/10 19:52:01;;;;;;;;;;;;;;;-1.40;100.00;100841.25;10412414;28;20418;-68
2022/12/10 19:57:04;;;;;;;29.48;15.80;;;;;;;-1.39;100.00;100845.53;10412193;28;19942;-68
2022/12/10 20:02:06;;;;;;;38.67;20.50;;;;;;;-1.35;100.00;100847.25;10411239;28;20094;-68
2022/12/10 20:07:10;;;;;;;46.65;21.13;;;;;;;-1.34;100.00;100849.84;10411321;28;20394;-69
2022/12/10 20:12:14;;;;;;;32.60;15.95;;;;;;;-1.38;100.00;100836.97;10411836;28;20083;-68
2022/12/10 20:17:19;;;;;;;29.88;16.88;;;;;;;-1.35;100.00;100842.13;10420220;28;20111;-68
2022/12/10 20:22:20;;;;;;;22.95;13.85;;;;;;;-1.34;100.00;100838.72;10419998;28;20056;-69
2022/12/10 20:27:25;;;;;;;37.50;19.08;;;;;;;-1.33;100.00;100846.41;10418976;28;20187;-68
2022/12/10 20:32:27;;;;;;;44.10;20.20;;;;;;;-1.32;100.00;100845.59;10418891;28;20131;-68
2022/12/10 20:37:29;;;;;;;35.67;16.38;;;;;;;-1.32;100.00;100849.84;10417251;28;20067;-69
2022/12/10 20:42:32;;;;;;;30.00;17.63;;;;;;;-1.31;100.00;100857.53;10418778;28;20150;-69
2022/12/10 20:47:35;;;;;;;37.22;19.63;;;;;;;-1.33;100.00;100856.66;10417926;28;20591;-69
2022/12/10 20:52:37;;;;;;;40.80;20.00;;;;;;;-1.28;100.00;100855.84;10418282;28;20083;-69
2022/12/10 20:57:41;;;;;;;31.73;19.05;;;;;;;-1.31;100.00;100849.84;10418493;28;20059;-69
2022/12/10 21:02:42;;;;;;;38.95;18.63;;;;;;;-1.28;100.00;100854.13;10418315;28;20088;-69
2022/12/10 21:07:45;;;;;;;41.90;22.00;;;;;;;-1.32;100.00;100850.72;10415506;28;20077;-69
2022/12/10 21:12:48;;;;;;;53.58;20.98;;;;;;;-1.32;100.00;100848.16;10417297;28;20088;-67
2022/12/10 21:17:50;;;;;;;42.22;18.52;;;;;;;-1.34;100.00;100849.84;10417509;28;20415;-68
2022/12/10 21:22:53;;;;;;;46.30;17.40;;;;;;;-1.34;100.00;100849.84;10418253;28;20112;-68
2022/12/10 21:27:56;;;;;;;42.30;18.77;;;;;;;-1.33;100.00;100850.69;10418083;28;20061;-68
2022/12/10 21:32:59;;;;;;;30.95;18.08;;;;;;;-1.33;100.00;100856.66;10417786;28;20081;-68
2022/12/10 21:38:02;;;;;;;40.70;16.95;;;;;;;-1.32;100.00;100850.72;10415973;28;20084;-69
2022/12/10 21:43:17;;;;;;;53.88;19.67;;;;;;;-1.32;100.00;100847.28;10417400;28;20505;-68
2022/12/10 21:48:22;;;;;;;33.80;18.23;;;;;;;-1.34;100.00;100844.72;10417083;28;20075;-69
2022/12/10 21:53:25;;;;;;;25.00;16.55;;;;;;;-1.31;100.00;100849.84;10417274;28;20085;-69
2022/12/10 21:58:28;;;;;;;42.67;19.55;;;;;;;-1.30;100.00;100843.03;10416783;28;20063;-67
2022/12/10 22:03:32;;;;;;;35.35;20.23;;;;;;;-1.24;100.00;100849.88;10416724;28;20101;-67
2022/12/10 22:08:34;;;;;;;41.08;20.65;;;;;;;-1.28;100.00;100840.47;10414721;28;20080;-68
2022/12/10 22:13:39;;;;;;;21.13;14.82;;;;;;;-1.31;100.00;100828.50;10417049;28;20081;-68
2022/12/10 22:18:40;;;;;;;44.35;20.67;;;;;;;-1.33;100.00;100843.84;10416845;28;20066;-68
2022/12/10 22:23:42;;;;;;;40.75;20.25;;;;;;;-1.33;100.00;100841.28;10415759;28;20070;-68
2022/12/10 22:28:46;;;;;;;53.40;19.88;;;;;;;-1.26;100.00;100841.34;10416453;28;20072;-67
2022/12/10 22:33:49;;;;;;;42.72;19.13;;;;;;;-1.25;100.00;100848.19;10414803;28;20081;-68
2022/12/10 22:38:51;;;;;;;41.13;19.23;;;;;;;-1.27;100.00;100844.75;10413506;28;20064;-69
2022/12/10 22:43:55;;;;;;;40.45;21.63;;;;;;;-1.27;100.00;100847.31;10415311;28;20055;-69
2022/12/10 22:48:57;;;;;;;43.40;19.40;;;;;;;-1.28;100.00;100851.56;10414507;28;20113;-68
2022/12/10 22:53:59;;;;;;;36.88;17.70;;;;;;;-1.32;100.00;100837.91;10414315;28;20085;-68
2022/12/10 22:59:02;;;;;;;41.55;19.73;;;;;;;-1.28;100.00;100845.59;10413635;28;20411;-68